Tiempo atmosférico en la estación meteorológica de Robledo De Chavela, Madrid (790 m.)



Fecha
DESCASC
Temp. máxima en grados centígrados (hora)
DESCASC
Temp. mínima en grados centígrados (hora)
DESCASC
Temp. media en grados centígrados
DESCASC
Racha de viento máxima en m/sg (hora)
DESCASC
Velocidad máxima media en intervalos de 10 minutos(hora)
DESCASC
Precipitaciones diarias en mm
DESCASC
Precipitaciones de 00:00 a 06:00 en mm
DESCASC
Precipitaciones de 06:00 a 12:00 en mm
DESCASC
Precipitaciones de 12:00 a 18:00 en mm
DESCASC
Precipitaciones de 18:00 a 24:00 en mm
DESCASC
19-01-2020 8.9 (15:50) 2.4 (22:00) 5.6 14.44 (21:30) 5.83 (00:20) 0.7 0.6 0.1 0 0
18-01-2020 8.1 (22:50) 4.3 (02:10) 6.2 11.67 (23:20) 5.83 (23:30) 1.6 0 1.6 0 0
17-01-2020 11.4 (14:40) 3.8 (07:40) 7.6 11.39 (00:40) 5.56 (02:30) 0 0 0 0 0
16-01-2020 11.5 (14:20) 5.8 (00:00) 8.7 11.11 (23:10) 5 (23:10) 0.9 0.1 0.8 0 0
15-01-2020 6.4 (17:10) 2.7 (00:00) 4.6 4.72 (08:20) 2.5 (08:20) 0.5 0.4 0.1 0 0
14-01-2020 7.6 (15:30) -3.6 (-00:0) 2 3.61 (14:10) 1.94 (12:00) 0 0 0 0 0
13-01-2020 8 (16:00) -2.7 (-00:0) 2.6 4.17 (14:30) 2.22 (13:30) 0 0 0 0 0
12-01-2020 11 (15:50) -3.9 (-00:0) 3.5 3.33 (15:20) 1.67 (12:50) 0 0 0 0 0
11-01-2020 11.8 (15:20) -1.8 (-00:0) 5 4.44 (12:20) 2.22 (12:30) 0 0 0 0 0
10-01-2020 11.3 (15:00) 0.9 (00:00) 6.1 16.39 (00:50) 8.06 (07:10) 0 0 0 0 0
09-01-2020 13.1 (14:30) 1.6 (00:00) 7.4 14.17 (23:59) 5 (23:59) 0 0 0 0 0
08-01-2020 15.2 (14:20) 1.3 (00:00) 8.2 3.89 (00:50) 2.22 (23:59) 0 0 0 0 0
07-01-2020 13.9 (15:50) 0.2 (00:00) 7 3.61 (22:40) 1.94 (20:20) 0 0 0 0 0
06-01-2020 13.1 (14:30) 0 (00:00) 6.6 3.33 (14:20) 1.94 (21:40) 0 0 0 0 0
05-01-2020 14 (15:50) -1.1 (-00:0) 6.4 2.78 (13:40) 1.39 (15:20) 0 0 0 0 0
04-01-2020 10.6 (15:10) -0.4 (00:00) 5.1 4.44 (15:30) 2.5 (12:30) 0 0 0 0 0
03-01-2020 7.7 (14:20) -0.1 (00:00) 3.8 4.17 (15:50) 2.5 (17:10) 0.1 0 0.1 0 0
02-01-2020 11.8 (15:10) 0.1 (00:00) 6 3.33 (15:20) 1.67 (15:30) 0.1 0 0.1 0 0
01-01-2020 13.5 (15:10) 0 (00:00) 6.8 3.06 (14:20) 1.39 (12:40) 0.1 0 0.1 0 0
31-12-2019 13.5 (14:50) 0.2 (00:00) 6.9 3.06 (13:40) 1.94 (13:30) 0 0 0 0 0
30-12-2019 13.1 (15:30) 0.4 (00:00) 6.8 3.06 (13:00) 1.94 (13:00) 0 0 0 0 0
29-12-2019 15.3 (15:30) 1.3 (00:00) 8.3 3.33 (11:50) 2.5 (11:50) 0 0 0 0 0
28-12-2019 18 (15:30) 2.3 (00:00) 10.1 3.61 (16:20) 2.22 (16:40) 0 0 0 0 0
27-12-2019 15.3 (15:10) 1.6 (00:00) 8.5 3.33 (22:10) 2.22 (22:10) 0.1 0 0.1 0 0
26-12-2019 15.6 (13:10) 5.3 (00:00) 10.5 5.83 (04:30) 2.78 (14:30) 0 0 0 0 0
25-12-2019 16.4 (14:50) 4.3 (00:00) 10.3 2.78 (14:10) 1.94 (15:10) -- -- 0.1 0 0
24-12-2019 14.8 (14:10) 3.5 (00:00) 9.2 3.61 (12:20) 2.22 (13:00) -- -- -- -- --
23-12-2019 14 (14:00) 5.4 (00:00) 9.7 10 (02:10) 4.44 (00:40) -- -- -- -- --
22-12-2019 13 (19:10) 8.7 (00:00) 10.8 20.28 (02:00) 7.78 (01:10) -- -- -- -- --

Gráficas

Temp. máximas Temp. mínimas Temp. medias Precipitaciones Rachas de viento máximas Velocidades máximas media en intervalos de 10 minutos

Datos horarios

Fecha y hora oficial Temperatura (ºC) Velocidad del viento (km/h) Dirección del viento Racha (km/h) Dirección de racha Precipitación (mm) Presión (hPa) Tendencia (hPa) Humedad (%)
2020-01-20 23:00:00 5.2 25 Este 47 Este 0 933.2 -0.1 46
2020-01-20 22:00:00 4.6 19 Este 55 Este 0 933.7 0.4 49
2020-01-20 21:00:00 4.2 19 Este 44 Nordeste 0 933.4 0.7 54
2020-01-20 20:00:00 3.6 15 Este 46 Este 0 933.3 0.8 58
2020-01-20 19:00:00 4.2 17 Este 51 Este 0 933.3 0.8 49
2020-01-20 18:00:00 5.3 21 Este 60 Nordeste 0 932.7 -0.2 39
2020-01-20 17:00:00 5.7 14 Este 48 Este 0 932.5 -0.7 37
2020-01-20 16:00:00 5.6 16 Este 41 Este 0 932.5 -1.1 36
2020-01-20 15:00:00 4.3 19 Este 46 Nordeste 0 932.9 -0.5 40
2020-01-20 14:00:00 5.6 21 Este 44 Este 0 933.2 -0.2 31
2020-01-20 13:00:00 6.2 17 Este 38 Nordeste 0 933.6 -0.1 28
2020-01-20 12:00:00 6.3 9 Este 24 Nordeste 0 933.4 0 26
2020-01-20 11:00:00 3.3 11 Norte 26 Norte 0 933.4 -0.1 31
2020-01-20 10:00:00 2 3 Norte 14 Noroeste 0 933.7 0.6 33
2020-01-20 09:00:00 0.1 3 Norte 10 Noroeste 0 933.4 0.3 39
2020-01-20 08:00:00 -1.1 0 Calma 14 Norte 0 933.5 0.2 43
2020-01-20 07:00:00 -2.6 0 Calma 7 Nordeste 0 933.1 -1 45
2020-01-20 06:00:00 -1.9 0 Calma 29 Norte 0 933.1 -1.4 40
2020-01-20 05:00:00 0.5 9 Norte 26 Noroeste 0 933.3 -1.3 36
2020-01-20 04:00:00 1.2 4 Norte 28 Norte 0 934.1 -1 34
2020-01-20 03:00:00 1.1 4 Nordeste 24 Norte 0 934.5 -0.8 33
2020-01-20 02:00:00 1.4 7 Noroeste 22 Norte 0 934.6 -0.3 33
2020-01-20 01:00:00 2.8 7 Norte 32 Norte 0 935.1 0.4 30
2020-01-20 00:00:00 2.5 10 Norte 33 Nordeste 0 935.3 1 32
2020-01-19 23:00:00 3.3 10 Norte 44 Norte 0 934.9 1 31
2020-01-19 22:00:00 2.5 13 Norte 52 Norte 0 934.7 1.4 36
2020-01-19 21:00:00 2.7 17 Norte 51 Norte 0 934.3 1.5 34
2020-01-19 20:00:00 3.1 19 Norte 43 Norte 0 933.9 1.1 36
2020-01-19 19:00:00 4.2 15 Norte 46 Nordeste 0 933.3 0.8 37
2020-01-19 18:00:00 5.1 18 Norte 46 Norte 0 932.8 0 38
2020-01-19 17:00:00 6.3 15 Norte 45 Norte 0 932.8 0.1 36
2020-01-19 16:00:00 7.8 19 Nordeste 47 Nordeste 0 932.5 -0.4 27
2020-01-19 15:00:00 8.1 17 Norte 45 Norte 0 932.8 -0.1 34
2020-01-19 14:00:00 7.2 12 Norte 38 Norte 0 932.7 0.3 36
2020-01-19 13:00:00 7 12 Norte 41 Norte 0 932.9 1.2 41
2020-01-19 12:00:00 7.1 15 Norte 48 Norte 0 932.9 1.5 48
2020-01-19 11:00:00 5.4 14 Norte 41 Norte 0 932.4 1.7 57
2020-01-19 10:00:00 5.6 10 Norte 41 Norte 0 931.7 0.8 57
2020-01-19 09:00:00 4.9 9 Norte 43 Nordeste 0.1 931.4 0.4 63
2020-01-19 08:00:00 4.6 13 Norte 31 Nordeste 0 930.7 -0.6 66
2020-01-19 07:00:00 4.7 5 Norte 44 Norte 0 930.9 -0.4 66
2020-01-19 06:00:00 4.8 14 Norte 39 Norte 0 931 -0.5 66
2020-01-19 05:00:00 5.2 19 Norte 37 Norte 0.5 931.3 0.4 68
2020-01-19 04:00:00 5.7 17 Norte 32 Nordeste 0 931.3 -0.4 64
2020-01-19 03:00:00 5.8 6 Norte 26 Noroeste 0 931.5 0.1 64
2020-01-19 02:00:00 5.1 8 Noroeste 25 Noroeste 0 930.9 -1.2 67
2020-01-19 01:00:00 5.8 9 Norte 41 Norte 0.1 931.7 -0.2 66
2020-01-19 00:00:00 7 17 Noroeste 42 Norte 0 931.4 -1 53
2020-01-18 23:00:00 7.5 10 Noroeste 39 Norte 0 932.1 0.1 60
2020-01-18 22:00:00 7.2 0 Calma 22 Oeste 0 931.9 0.3 66
2020-01-18 21:00:00 6.7 5 Oeste 14 Oeste 0 932.4 0.4 87
2020-01-18 20:00:00 6.1 0 Calma 19 Noroeste 0 932 -0.8 85
2020-01-18 19:00:00 7.7 8 Oeste 25 Sudoeste 0 931.6 -2.4 86
2020-01-18 18:00:00 7.4 6 Sudoeste 22 Sudoeste 0 932 -3.2 88
2020-01-18 17:00:00 7 4 Sudoeste 13 Sudoeste 0 932.8 -3.7 88
2020-01-18 16:00:00 6.6 5 Sur 11 Sur 0 934 -4.1 88
2020-01-18 15:00:00 6 2 Este 9 Nordeste 0 935.2 -4.2 88
2020-01-18 14:00:00 6 2 Este 8 Sudeste 0 936.5 -3.2 87
2020-01-18 13:00:00 5.6 2 Nordeste 9 Norte 0 938.1 -1.7 87
2020-01-18 12:00:00 5.3 4 Nordeste 8 Nordeste 0.1 939.4 -0.3 87
2020-01-18 11:00:00 4.9 4 Nordeste 8 Este 0.3 939.7 -0.3 87
2020-01-18 10:00:00 4.6 3 Este 6 Este 0.4 939.8 0.1 87
2020-01-18 09:00:00 4.4 4 Este 10 Nordeste 0.6 939.7 -0.1 86
2020-01-18 08:00:00 4.5 3 Este 8 Sudeste 0.1 940 0.3 87
2020-01-18 07:00:00 4.5 0 Calma 9 Sudoeste 0.1 939.7 -0.4 84
2020-01-18 06:00:00 5.3 2 Sudoeste 10 Sudeste 0 939.8 -0.2 75
2020-01-18 05:00:00 5.8 5 Nordeste 9 Nordeste 0 939.7 -1.5 69
2020-01-18 04:00:00 5.4 5 Nordeste 9 Nordeste 0 940.1 -1.3 70
2020-01-18 03:00:00 4.3 0 Calma 8 Nordeste 0 940 -1.3 72
2020-01-18 02:00:00 4.6 0 Calma 7 Nordeste 0 941.2 -0.4 70
2020-01-18 01:00:00 5.4 0 Calma 10 Nordeste 0 941.4 -0.6 65
2020-01-18 00:00:00 5.4 4 Nordeste 10 Nordeste 0 941.3 -0.8 69
2020-01-17 23:00:00 5.6 0 Calma 11 Oeste 0 941.6 -0.4 63
2020-01-17 22:00:00 5.2 0 Calma 10 Norte 0 942 0.7 67
2020-01-17 21:00:00 4.9 0 Calma 9 Norte 0 942.1 1 75
2020-01-17 20:00:00 4.2 0 Calma 5 Este 0 942 1.3 80
2020-01-17 19:00:00 5.6 0 Calma 9 Norte 0 941.3 1 74
2020-01-17 18:00:00 8.6 4 Noroeste 13 Sudoeste 0 941.1 1 61
2020-01-17 17:00:00 10 8 Oeste 17 Sudoeste 0 940.7 0 55
2020-01-17 16:00:00 10.8 8 Sudoeste 25 Sudoeste 0 940.3 -0.9 51
2020-01-17 15:00:00 11.4 13 Sudoeste 22 Sur 0 940.1 -1.4 51
2020-01-17 14:00:00 10.3 9 Noroeste 19 Oeste 0 940.7 -0.1 52
2020-01-17 13:00:00 9.5 10 Sudoeste 19 Sudoeste 0 941.2 0.9 69
2020-01-17 12:00:00 8.8 8 Oeste 18 Sudoeste 0 941.5 1.8 67
2020-01-17 11:00:00 8 9 Oeste 26 Oeste 0 940.8 1.7 71
2020-01-17 10:00:00 6.7 12 Oeste 22 Oeste 0 940.3 1.7 79
2020-01-17 09:00:00 6.2 9 Oeste 24 Oeste 0 939.7 1.5 81
2020-01-17 08:00:00 6.1 10 Oeste 24 Oeste 0 939.1 1.3 82
2020-01-17 07:00:00 4.9 7 Noroeste 24 Oeste 0 938.6 1.1 81
2020-01-17 06:00:00 6.4 12 Oeste 22 Oeste 0 938.2 0.5 78
2020-01-17 05:00:00 6.4 9 Oeste 23 Oeste 0 937.8 0.2 77
2020-01-17 04:00:00 6.9 12 Oeste 28 Oeste 0 937.5 -0.1 74
2020-01-17 03:00:00 7 13 Oeste 39 Sudoeste 0 937.7 -0.1 72
2020-01-17 02:00:00 7.3 10 Oeste 30 Oeste 0 937.6 0.4 64
2020-01-17 01:00:00 8.3 13 Oeste 41 Oeste 0 937.6 0.6 52
2020-01-17 00:00:00 8.4 16 Oeste 40 Sudoeste 0 937.8 1 53
2020-01-16 23:00:00 7.6 3 Sudoeste 22 Oeste 0 937.2 0.5 68
2020-01-16 22:00:00 7.5 0 Calma 20 Oeste 0 937 0.9 65
2020-01-16 21:00:00 6.1 3 Noroeste 10 Oeste 0 936.8 0.8 84
2020-01-16 20:00:00 7.1 3 Nordeste 5 Nordeste 0 936.7 -- 83
2020-01-16 19:00:00 7.2 0 Calma 8 Nordeste 0 936.1 0 81
2020-01-16 18:00:00 8.5 6 Nordeste 10 Nordeste 0 936 -0.5 77
2020-01-16 17:00:00 -- 0 Calma 15 Sudeste 0 -- -- --
2020-01-16 16:00:00 10 5 Sur 16 Oeste 0 936.1 -2 65
2020-01-16 15:00:00 10.4 7 Sudoeste 16 Sudoeste 0 936.5 -2.2 62
2020-01-16 14:00:00 10.3 3 Sudoeste 11 Sudoeste 0 937.3 -1.1 74
2020-01-16 13:00:00 8.4 0 Calma 5 Sudoeste 0 938.1 -0.1 87
2020-01-16 12:00:00 6.9 2 Sudeste 10 Este 0 938.7 0.8 87
2020-01-16 11:00:00 7 5 Este 10 Este 0 938.4 0.6 87
2020-01-16 10:00:00 6.8 0 Calma -- -- 0.2 938.2 0.5 87
2020-01-16 09:00:00 6.8 0 Calma 8 Nordeste 0.6 937.9 0.5 87
2020-01-16 08:00:00 7 4 Nordeste 12 Nordeste 0 937.8 0.3 87
2020-01-16 07:00:00 6.8 3 Nordeste 11 Nordeste 0 937.7 -0.3 87
2020-01-16 06:00:00 6.3 0 Calma 5 Este 0 937.4 -0.4 87
2020-01-16 05:00:00 6.3 0 Calma 6 Nordeste 0 937.5 -0.5 88
2020-01-16 04:00:00 5.9 0 Calma 0 Calma 0 938 -0.4 87
2020-01-16 03:00:00 6 0 Calma 4 Nordeste 0.1 937.8 -0.8 86
2020-01-16 02:00:00 6.3 0 Calma 6 Nordeste 0 938 -0.4 84
2020-01-16 01:00:00 6.2 0 Calma 7 Nordeste 0 938.4 0.1 83
2020-01-16 00:00:00 6 4 Nordeste 10 Este 0 938.6 0.7 80
2020-01-15 23:00:00 6.1 5 Este 9 Nordeste 0 938.4 0.7 80
2020-01-15 22:00:00 6 2 Nordeste 10 Nordeste 0 938.3 0.8 80
2020-01-15 21:00:00 5.5 4 Nordeste 7 Nordeste 0 937.9 1 82
2020-01-15 20:00:00 5.9 0 Calma 9 Este 0 937.7 1.1 79
2020-01-15 19:00:00 6 4 Este 7 Este 0 937.5 1.4 79
2020-01-15 18:00:00 6.3 3 Este -- -- -- 936.9 0.8 78
2020-01-15 17:00:00 6.2 2 Este 9 Este 0 936.6 0.4 77
2020-01-15 16:00:00 6.1 4 Nordeste 9 Sudeste 0 936.1 -0.2 78
2020-01-15 15:00:00 5.5 5 Este 12 Este 0 936.1 -0.4 80
2020-01-15 14:00:00 5.3 7 Este 10 Este 0 936.2 0.1 81
2020-01-15 13:00:00 5.2 6 Este 9 Este 0 936.3 1.2 81
2020-01-15 12:00:00 5.3 0 Calma 8 Este 0 936.5 2.3 81
2020-01-15 11:00:00 5 0 Calma 6 Nordeste 0 936.1 2.5 85
2020-01-15 10:00:00 4 3 Nordeste 10 Nordeste 0.1 935.1 2 88
2020-01-15 09:00:00 3.3 0 Calma 17 Nordeste 0 934.2 1.1 88
2020-01-15 08:00:00 3.1 4 Nordeste 11 Nordeste 0 933.6 0.5 88
2020-01-15 07:00:00 3.8 2 Nordeste 9 Este 0 933.1 -0.5 88
2020-01-15 06:00:00 3.4 4 Nordeste 9 Nordeste 0 933.1 -0.3 88
2020-01-15 05:00:00 2.9 3 Sur 8 Nordeste 0 933.1 -0.4 88
2020-01-15 04:00:00 4.2 2 Nordeste 6 Nordeste 0 933.6 0 87
2020-01-15 03:00:00 4.2 2 Nordeste 7 Nordeste 0 933.4 -0.4 87
2020-01-15 02:00:00 4.2 0 Calma 6 Nordeste 0.3 933.5 -0.2 86
2020-01-15 01:00:00 4.5 4 Nordeste 9 Nordeste 0.1 933.6 -0.1 82
2020-01-15 00:00:00 4.5 0 Calma 6 Norte 0 933.8 0.3 79
2020-01-14 23:00:00 4.5 0 Calma 5 Sudoeste 0 933.7 0.3 77
2020-01-14 22:00:00 4.2 4 Nordeste 6 Nordeste 0 933.7 0.6 77
2020-01-14 21:00:00 1.8 0 Calma 9 Nordeste 0 933.5 0.6 80
2020-01-14 20:00:00 1.9 2 Norte 7 Nordeste 0 933.4 0.9 76
2020-01-14 19:00:00 4.7 0 Calma 5 Nordeste 0 933.1 0.6 68
2020-01-14 18:00:00 5.3 3 Noroeste 11 Este 0 932.9 0.2 62
2020-01-14 17:00:00 6.3 5 Sudeste 11 Sudoeste 0 932.5 -0.8 57
2020-01-14 16:00:00 6.9 4 Sudeste 11 Sudeste 0 932.5 -1.5 53
2020-01-14 15:00:00 6.9 4 Sudoeste 13 Sudoeste 0 932.7 -1.8 54
2020-01-14 14:00:00 6.5 0 Calma 12 Sudeste 0 933.3 -1.3 60
2020-01-14 13:00:00 5 3 Sudoeste 10 Sudeste 0 934 -0.2 64
2020-01-14 12:00:00 3.8 7 Sudeste 10 Sudeste 0 934.5 0.6 73
2020-01-14 11:00:00 1.4 2 Sudoeste 6 Sudoeste 0 934.6 1 88
2020-01-14 10:00:00 -1.3 0 Calma 5 Nordeste 0 934.2 0.9 89
2020-01-14 09:00:00 -3 2 Nordeste 5 Norte 0 933.9 1 89
2020-01-14 08:00:00 -2.5 4 Nordeste 6 Nordeste 0 933.6 0.4 89
2020-01-14 07:00:00 -2.5 4 Nordeste 5 Nordeste 0 933.3 -0.2 89
2020-01-14 06:00:00 -3.1 0 Calma 6 Nordeste 0 932.9 -0.6 89
2020-01-14 05:00:00 -2.9 0 Calma 6 Nordeste 0 933.2 -0.7 89
2020-01-14 04:00:00 -2.4 0 Calma 8 Nordeste 0 933.5 -0.8 88
2020-01-14 03:00:00 -1.9 0 Calma 12 Nordeste 0 933.5 -1.2 87
2020-01-14 02:00:00 -1.2 3 Nordeste 10 Nordeste 0 933.9 -0.6 87
2020-01-14 01:00:00 -1.7 0 Calma 10 Nordeste 0 934.3 -0.2 87
2020-01-14 00:00:00 -1.4 2 Nordeste 8 Nordeste 0 934.7 0.1 87
2020-01-13 23:00:00 -0.7 4 Nordeste 8 Nordeste 0 934.5 -0.2 84
2020-01-13 22:00:00 -0.1 2 Nordeste 8 Norte 0 934.5 -0.1 82
2020-01-13 21:00:00 0.4 0 Calma 9 Norte 0 934.6 0.2 81
2020-01-13 20:00:00 1 2 Nordeste 6 Nordeste 0 934.7 0.3 79
2020-01-13 19:00:00 1.8 0 Calma 7 Nordeste 0 934.6 0.2 74
2020-01-13 18:00:00 4.7 2 Noroeste 8 Sudoeste 0 934.4 -0.5 60
2020-01-13 17:00:00 6.6 4 Sudoeste 12 Sur 0 934.4 -1.2 52
2020-01-13 16:00:00 8 4 Sudoeste 14 Sur 0 934.4 -1.8 48
2020-01-13 15:00:00 7.3 6 Sur 15 Sur 0 934.9 -2.3 47
2020-01-13 14:00:00 6.5 6 Sudoeste 13 Sur 0 935.6 -1.9 48
2020-01-13 13:00:00 5.7 6 Sudoeste 12 Sudoeste 0 936.2 -1 54
2020-01-13 12:00:00 4.6 4 Nordeste 8 Nordeste 0 937.2 0 63
2020-01-13 11:00:00 2.2 0 Calma 4 Nordeste 0 937.5 0.3 78
2020-01-13 10:00:00 -0.3 2 Nordeste 7 Nordeste 0 937.2 0.1 86
2020-01-13 09:00:00 -2.2 0 Calma 4 Nordeste 0 937.2 -0.1 88
2020-01-13 08:00:00 -2.5 3 Nordeste 6 Nordeste 0 937.2 -0.4 87
2020-01-13 07:00:00 -2 0 Calma 7 Nordeste 0 937.1 -0.8 87
2020-01-13 06:00:00 -2.2 0 Calma 6 Nordeste 0 937.3 -0.9 87
2020-01-13 05:00:00 -1.8 2 Nordeste 5 Norte 0 937.6 -0.9 87
2020-01-13 04:00:00 -1.6 2 Nordeste 5 Nordeste 0 937.9 -1.6 86
2020-01-13 03:00:00 -0.9 2 Norte 4 Nordeste 0 938.2 -1.4 84
2020-01-13 02:00:00 -1.1 0 Calma 5 Nordeste 0 938.5 -1.3 81
2020-01-13 01:00:00 -0.1 2 Nordeste 10 Nordeste 0 939.5 -0.1 78
2020-01-13 00:00:00 0.6 3 Nordeste 9 Nordeste 0 939.6 0 77
2020-01-12 23:00:00 0.6 0 Calma 7 Nordeste 0 939.8 0.1 77
2020-01-12 22:00:00 0.2 2 Nordeste 8 Nordeste 0 939.6 0.2 76
2020-01-12 21:00:00 1.1 3 Nordeste 7 Nordeste 0 939.6 0.6 75
2020-01-12 20:00:00 1.4 3 Norte 7 Nordeste 0 939.7 0.8 72
2020-01-12 19:00:00 2.5 2 Nordeste 4 Nordeste 0 939.4 0.5 66
2020-01-12 18:00:00 6.1 0 Calma 7 Oeste 0 939 -0.2 49
2020-01-12 17:00:00 8.7 4 Sudoeste 9 Sudoeste 0 938.9 -1 41
2020-01-12 16:00:00 10 5 Sudoeste 12 Sur 0 938.9 -1.9 37
2020-01-12 15:00:00 9.7 4 Sudoeste 10 Sur 0 939.2 -2.3 37
2020-01-12 14:00:00 9.4 5 Sudoeste 11 Sudoeste 0 939.9 -1.8 39
2020-01-12 13:00:00 8.3 6 Sudoeste 11 Oeste 0 940.8 -0.5 42
2020-01-12 12:00:00 7.4 2 Sudeste 6 Sudoeste 0 941.5 0.5 44
2020-01-12 11:00:00 5.1 3 Sudoeste 5 Sur 0 941.7 1 48
2020-01-12 10:00:00 1 0 Calma 4 Nordeste 0 941.3 0.7 66
2020-01-12 09:00:00 -3.4 4 Nordeste 7 Nordeste 0 941 0.6 69
2020-01-12 08:00:00 -3.7 3 Nordeste 7 Este 0 940.7 0 70
2020-01-12 07:00:00 -3.1 0 Calma 9 Nordeste 0 940.6 0 70
2020-01-12 06:00:00 -2.6 4 Nordeste 9 Nordeste 0 940.4 -0.2 66
2020-01-12 05:00:00 -2.6 3 Nordeste 6 Nordeste 0 940.7 -0.2 65
2020-01-12 04:00:00 -1.4 0 Calma 6 Nordeste 0 940.6 -0.3 63
2020-01-12 03:00:00 -1.6 0 Calma 9 Nordeste 0 940.6 -0.5 63
2020-01-12 02:00:00 -0.7 4 Nordeste 8 Norte 0 940.9 -0.1 63
2020-01-12 01:00:00 -0.2 2 Nordeste 9 Nordeste 0 940.9 -0.2 62
2020-01-12 00:00:00 0.3 0 Calma 9 Nordeste 0 941.1 -0.1 60
2020-01-11 23:00:00 2.3 0 Calma 14 Oeste 0 941 0.2 56
2020-01-11 22:00:00 2.3 5 Noroeste 10 Oeste 0 941.1 0.9 54
2020-01-11 21:00:00 1.5 0 Calma 4 Norte 0 941.2 1.1 54
2020-01-11 20:00:00 1.5 3 Nordeste 6 Nordeste 0 940.8 0.7 52
2020-01-11 19:00:00 2.6 2 Nordeste 5 Nordeste 0 940.2 0.1 48
2020-01-11 18:00:00 6 0 Calma 8 Sur 0 940.1 -0.1 35
2020-01-11 17:00:00 9.4 3 Sudoeste 12 Sur 0 940.1 -0.8 29
2020-01-11 16:00:00 10.5 8 Sur 14 Sur 0 940.1 -1.8 29
2020-01-11 15:00:00 10.7 5 Sur 11 Sudeste 0 940.2 -2.5 29
2020-01-11 14:00:00 10.1 4 Sudeste 10 Sur 0 940.9 -1.8 33
2020-01-11 13:00:00 8.9 5 Sudeste 16 Sudeste 0 941.9 -0.2 35
2020-01-11 12:00:00 8.6 3 Sudoeste 7 Sudoeste 0 942.7 1 45
2020-01-11 11:00:00 6.5 3 Sur 7 Este 0 942.7 1.2 49
2020-01-11 10:00:00 2.3 2 Sudeste 10 Este 0 942.1 0.9 65
2020-01-11 09:00:00 -1.4 3 Nordeste 6 Nordeste 0 941.7 0.7 75
2020-01-11 08:00:00 -1.5 3 Nordeste 8 Nordeste 0 941.5 0.4 76
2020-01-11 07:00:00 -1.1 3 Nordeste 6 Nordeste 0 941.2 -0.1 75
2020-01-11 06:00:00 -0.8 4 Nordeste 7 Nordeste 0 941 -0.1 73
2020-01-11 05:00:00 -1.3 2 Nordeste 6 Noroeste 0 941.1 0.3 73
2020-01-11 04:00:00 -0.7 2 Nordeste 9 Nordeste 0 941.3 0.4 74
2020-01-11 03:00:00 0 3 Norte 8 Norte 0 941.1 -0.1 72
2020-01-11 02:00:00 0.9 4 Nordeste 9 Nordeste 0 940.8 0.3 69
2020-01-11 01:00:00 0.6 0 Calma 5 Este 0 940.9 0.6 70
2020-01-11 00:00:00 1.4 0 Calma 5 Este 0 941.2 1 66
2020-01-10 23:00:00 2.3 0 Calma 5 Oeste 0 940.5 0.6 60
2020-01-10 22:00:00 4.6 2 Sudoeste 23 Norte 0 940.3 0.6 49
2020-01-10 21:00:00 7 4 Norte 28 Norte 0 940.2 0.9 43
2020-01-10 20:00:00 6.9 5 Norte 31 Norte 0 939.9 1.3 42
2020-01-10 19:00:00 7.4 12 Norte 32 Norte 0 939.7 1.7 42
2020-01-10 18:00:00 7.9 14 Norte 32 Norte 0 939.3 1.4 40
2020-01-10 17:00:00 9.1 14 Norte 32 Norte 0 938.6 0.5 36
2020-01-10 16:00:00 10 10 Norte 28 Norte 0 938 -0.9 34
2020-01-10 15:00:00 10.6 9 Nordeste 24 Este 0 937.9 -1.4 31
2020-01-10 14:00:00 10.4 14 Este 30 Nordeste 0 938.1 -0.9 33
2020-01-10 13:00:00 10.1 13 Norte 33 Nordeste 0 938.9 0.2 35
2020-01-10 12:00:00 10.2 3 Sur 14 Sudeste 0 939.3 1.2 38
2020-01-10 11:00:00 8.7 4 Nordeste 30 Noroeste 0 939 0.9 45
2020-01-10 10:00:00 5.7 16 Noroeste 33 Norte 0 938.7 1.9 56
2020-01-10 09:00:00 4 13 Noroeste 37 Norte 0 938.1 1 60
2020-01-10 08:00:00 4.4 21 Norte 54 Norte 0 938.1 1.4 56
2020-01-10 07:00:00 5 27 Norte 54 Norte 0 936.8 0.1 54
2020-01-10 06:00:00 4.4 3 Oeste 19 Noroeste 0 937.1 1 60
2020-01-10 05:00:00 5.6 6 Noroeste 37 Norte 0 936.7 0.6 55
2020-01-10 04:00:00 6.5 13 Norte 50 Este 0 936.7 0 54
2020-01-10 03:00:00 6.5 9 Norte 53 Norte 0 936.1 -0.3 55
2020-01-10 02:00:00 7.7 15 Noroeste 41 Noroeste 0 936.1 -0.1 53
2020-01-10 01:00:00 8.4 15 Norte 59 Norte 0 936.7 0.8 53
2020-01-10 00:00:00 9.2 18 Norte 51 Norte 0 936.4 0.1 56
2020-01-09 23:00:00 9.9 7 Norte 22 Nordeste 0 936.2 -0.2 57
2020-01-09 22:00:00 9.5 5 Noroeste 17 Oeste 0 935.9 -0.3 54
2020-01-09 21:00:00 11.8 6 Noroeste 28 Noroeste 0 936.3 0.4 44
2020-01-09 20:00:00 9.8 3 Norte 19 Nordeste 0 936.4 0.7 66
2020-01-09 19:00:00 7.6 0 Calma 9 Norte 0 936.2 0.8 70
2020-01-09 18:00:00 8.6 0 Calma 11 Sur 0 935.9 0.3 59
2020-01-09 17:00:00 10.6 5 Sudoeste 14 Sur 0 935.7 -0.9 51
2020-01-09 16:00:00 11.6 6 Sur 13 Sur 0 935.4 -2 44
2020-01-09 15:00:00 11.9 8 Sur 16 Sur 0 935.6 -2.4 43
2020-01-09 14:00:00 12.6 6 Sudoeste 14 Sur 0 936.6 -1.6 43
2020-01-09 13:00:00 10.9 6 Sudoeste 12 Sudoeste 0 937.4 -1 48
2020-01-09 12:00:00 9.8 4 Sudoeste 9 Sudoeste 0 938 0.3 50
2020-01-09 11:00:00 8.4 0 Calma 6 Sudoeste 0 938.2 0.2 62
2020-01-09 10:00:00 5.9 2 Sudeste 5 Sudeste 0 938.4 0.4 75
2020-01-09 09:00:00 1.9 3 Nordeste 7 Nordeste 0 937.7 -0.3 84
2020-01-09 08:00:00 2 0 Calma 7 Nordeste 0 938 -0.3 84
2020-01-09 07:00:00 2.2 0 Calma 6 Nordeste 0 938 -0.8 83
2020-01-09 06:00:00 2.4 0 Calma 4 Norte 0 938 -0.8 81
2020-01-09 05:00:00 2.6 0 Calma 6 Nordeste 0 938.3 -0.8 79
2020-01-09 04:00:00 2.5 0 Calma 8 Nordeste 0 938.8 -0.6 76
2020-01-09 03:00:00 3.5 5 Nordeste 7 Nordeste 0 938.8 -0.8 72
2020-01-09 02:00:00 3.4 3 Nordeste 5 Nordeste 0 939.1 -0.5 69
2020-01-09 01:00:00 4.9 0 Calma 9 Nordeste 0 939.4 -0.1 60
2020-01-09 00:00:00 6.6 8 Nordeste 11 Nordeste 0 939.6 0.5 52
2020-01-08 23:00:00 4.9 2 Norte 6 Nordeste 0 939.6 0.4 60
2020-01-08 22:00:00 4.7 4 Nordeste 6 Nordeste 0 939.5 0.3 57
2020-01-08 21:00:00 5.2 0 Calma 6 Nordeste 0 939.1 0.4 65
2020-01-08 20:00:00 5.9 3 Nordeste 5 Norte 0 939.2 0.9 63
2020-01-08 19:00:00 6.6 2 Nordeste 6 Nordeste 0 939.2 1 59
2020-01-08 18:00:00 9.3 0 Calma 8 Sudeste 0 938.7 0.7 47
2020-01-08 17:00:00 12.5 5 Sudeste 10 Sudeste 0 938.3 -0.1 39
2020-01-08 16:00:00 13.3 6 Sudeste 12 Sudeste 0 938.2 -1 36
2020-01-08 15:00:00 13.8 6 Sudeste 12 Este 0 938 -2.1 35
2020-01-08 14:00:00 14.9 4 Sudoeste 8 Sudoeste 0 938.4 -2.3 35
2020-01-08 13:00:00 13.4 4 Sudoeste 8 Sur 0 939.2 -1.1 38
2020-01-08 12:00:00 11.7 0 Calma 5 Oeste 0 940.1 0.4 39
2020-01-08 11:00:00 8.9 3 Sudoeste 8 Sur 0 940.7 1.1 50
2020-01-08 10:00:00 4.6 0 Calma 9 Nordeste 0 940.3 0.8 66
2020-01-08 09:00:00 1.7 3 Nordeste 6 Nordeste 0 939.7 -0.2 70
2020-01-08 08:00:00 1.6 4 Nordeste 5 Nordeste 0 939.6 -0.2 72
2020-01-08 07:00:00 1.4 3 Nordeste 8 Nordeste 0 939.5 -0.7 71
2020-01-08 06:00:00 2.5 6 Nordeste 10 Nordeste 0 939.9 -0.4 66
2020-01-08 05:00:00 1.7 4 Nordeste 9 Nordeste 0 939.8 -0.3 68
2020-01-08 04:00:00 1.9 0 Calma 10 Nordeste 0 940.2 0.3 66
2020-01-08 03:00:00 2.4 4 Nordeste 7 Nordeste 0 940.3 -0.1 59
2020-01-08 02:00:00 3 0 Calma 13 Nordeste 0 940.1 -0.4 54
2020-01-08 01:00:00 5 7 Nordeste 14 Norte 0 939.9 -0.6 46
2020-01-08 00:00:00 3.3 0 Calma 7 Nordeste 0 940.4 -0.2 54
2020-01-07 23:00:00 4.1 3 Nordeste 13 Nordeste 0 940.5 -0.1 54
2020-01-07 22:00:00 4.2 3 Nordeste 9 Nordeste 0 940.5 -0.1 68
2020-01-07 21:00:00 4.2 3 Nordeste 11 Este 0 940.6 0.2 66
2020-01-07 20:00:00 5 5 Nordeste 12 Nordeste 0 940.6 0.2 66
2020-01-07 19:00:00 5 2 Nordeste 7 Nordeste 0 940.6 0.4 66
2020-01-07 18:00:00 8.4 0 Calma 5 Sudoeste 0 940.4 0.1 51
2020-01-07 17:00:00 11.4 2 Sudoeste 8 Sudoeste 0 940.4 -0.6 40
2020-01-07 16:00:00 12.9 3 Sudoeste 9 Sudeste 0 940.2 -1.7 37
2020-01-07 15:00:00 13.5 4 Sudoeste 10 Sudoeste 0 940.3 -1.9 37
2020-01-07 14:00:00 13 5 Sudoeste 11 Sur 0 941 -1.4 37
2020-01-07 13:00:00 12.2 3 Sudoeste 8 Sudoeste 0 941.9 -0.4 39
2020-01-07 12:00:00 9.5 2 Oeste 8 Sudoeste 0 942.2 0.4 47
2020-01-07 11:00:00 8.1 0 Calma 5 Sur 0 942.4 1 53
2020-01-07 10:00:00 5 0 Calma 6 Nordeste 0 942.3 1.2 69
2020-01-07 09:00:00 0.5 3 Nordeste 9 Nordeste 0 941.8 0.5 74
2020-01-07 08:00:00 0.4 4 Nordeste 8 Nordeste 0 941.4 0 76
2020-01-07 07:00:00 1 5 Nordeste 6 Nordeste 0 941.1 -0.2 77
2020-01-07 06:00:00 1.3 4 Nordeste 8 Nordeste 0 941.3 -0.4 72
2020-01-07 05:00:00 2.6 6 Nordeste 9 Nordeste 0 941.4 0.2 67
2020-01-07 04:00:00 1.4 0 Calma 9 Nordeste 0 941.3 0.3 70
2020-01-07 03:00:00 2.3 3 Nordeste 9 Nordeste 0 941.7 0.5 69
2020-01-07 02:00:00 2.5 3 Nordeste 9 Nordeste 0 941.2 0.4 69
2020-01-07 01:00:00 2.4 4 Nordeste 7 Nordeste 0 941 0.3 69
2020-01-07 00:00:00 2.6 4 Nordeste 8 Nordeste 0 941.2 1 69
2020-01-06 23:00:00 3.4 5 Nordeste 10 Nordeste 0 940.8 1 66
2020-01-06 22:00:00 3.6 3 Nordeste 10 Nordeste 0 940.7 1.4 71
2020-01-06 21:00:00 4.2 3 Nordeste 11 Nordeste 0 940.2 1.1 69
2020-01-06 20:00:00 4 4 Nordeste 8 Nordeste 0 939.8 1 68
2020-01-06 19:00:00 4.6 2 Nordeste 6 Nordeste 0 939.3 0.9 67
2020-01-06 18:00:00 7.3 0 Calma 5 Oeste 0 939.1 0.8 53
2020-01-06 17:00:00 10.2 4 Oeste 9 Sudoeste 0 938.8 0.1 41
2020-01-06 16:00:00 11.5 5 Sudoeste 10 Sur 0 938.4 -1.2 36
2020-01-06 15:00:00 11.7 6 Sur 12 Sur 0 938.3 -1.8 34
2020-01-06 14:00:00 12.2 5 Sudoeste 9 Sudoeste 0 938.7 -1.4 34
2020-01-06 13:00:00 11.2 5 Sudoeste 9 Sudoeste 0 939.6 -0.4 39
2020-01-06 12:00:00 9.3 4 Sudoeste 7 Sudoeste 0 940.1 0.3 45
2020-01-06 11:00:00 8.2 2 Sudeste 5 Sudeste 0 940.1 0.9 55
2020-01-06 10:00:00 4.8 0 Calma 5 Nordeste 0 940 1.5 69